createdAt,value
2019-05-21T00:00:33.583Z,90.18
2019-05-21T00:03:02.645Z,89.45
2019-05-21T00:05:33.528Z,88.54
2019-05-21T00:08:02.688Z,88.95
2019-05-21T00:10:32.302Z,91.06
2019-05-21T00:13:07.699Z,91.40
2019-05-21T00:15:37.086Z,92.09
2019-05-21T00:18:06.743Z,92.39
2019-05-21T00:20:35.866Z,92.23
2019-05-21T00:23:04.951Z,91.56
2019-05-21T00:25:34.323Z,91.11
2019-05-21T00:28:44.574Z,90.70
2019-05-21T00:31:49.470Z,90.39
2019-05-21T00:34:54.977Z,90.26
2019-05-21T00:37:59.896Z,90.49
2019-05-21T00:41:07.943Z,91.44
2019-05-21T00:43:46.702Z,91.23
2019-05-21T00:46:16.856Z,91.83
2019-05-21T00:48:47.019Z,91.00
2019-05-21T00:51:18.865Z,90.99
2019-05-21T00:53:51.189Z,91.22
2019-05-21T00:56:22.689Z,91.38
2019-05-21T00:58:51.814Z,91.86
2019-05-21T01:01:29.040Z,90.90
2019-05-21T01:04:02.295Z,91.52
2019-05-21T01:06:31.397Z,92.22
2019-05-21T01:09:00.701Z,91.55
2019-05-21T01:11:29.861Z,91.33
2019-05-21T01:13:58.983Z,91.99
2019-05-21T01:16:28.123Z,92.58
2019-05-21T01:18:57.215Z,92.32
2019-05-21T01:21:26.298Z,91.35
2019-05-21T01:23:55.393Z,90.92
2019-05-21T01:26:24.878Z,91.90
2019-05-21T01:28:57.838Z,91.91
2019-05-21T01:31:27.993Z,91.32
2019-05-21T01:33:57.064Z,92.16
2019-05-21T01:36:33.926Z,92.37
2019-05-21T01:38:59.285Z,92.47
2019-05-21T01:41:30.536Z,91.29
2019-05-21T01:43:59.619Z,92.26
2019-05-21T01:46:31.714Z,91.59
2019-05-21T01:49:00.880Z,91.66
2019-05-21T01:51:30.898Z,92.00
2019-05-21T01:54:05.817Z,91.22
2019-05-21T01:56:34.960Z,90.99
2019-05-21T01:59:05.320Z,90.30
2019-05-21T02:01:38.800Z,91.30
2019-05-21T02:04:17.262Z,90.19
2019-05-21T02:06:49.289Z,90.47
2019-05-21T02:09:18.926Z,91.02
2019-05-21T02:11:49.085Z,91.21
2019-05-21T02:14:25.066Z,91.01
2019-05-21T02:16:54.147Z,91.40
2019-05-21T02:19:26.629Z,91.65
2019-05-21T02:21:55.819Z,90.94
2019-05-21T02:24:24.845Z,90.74
2019-05-21T02:26:55.951Z,91.65
2019-05-21T02:29:25.920Z,92.32
2019-05-21T02:31:56.962Z,91.96
2019-05-21T02:34:27.457Z,92.19
2019-05-21T02:36:57.899Z,92.39
2019-05-21T02:39:29.688Z,91.97
2019-05-21T02:42:01.393Z,91.35
2019-05-21T02:44:30.503Z,91.61
2019-05-21T02:47:01.320Z,91.22
2019-05-21T02:49:33.449Z,91.55
2019-05-21T02:52:05.760Z,89.64
2019-05-21T02:54:41.520Z,90.84
2019-05-21T02:57:11.689Z,91.54
2019-05-21T02:59:44.118Z,91.71
2019-05-21T03:02:34.576Z,91.38
2019-05-21T03:05:07.395Z,91.42
2019-05-21T03:07:39.313Z,91.27
2019-05-21T03:10:15.324Z,90.21
2019-05-21T03:12:46.559Z,90.37
2019-05-21T03:15:21.434Z,90.46
2019-05-21T03:17:52.896Z,90.00
2019-05-21T03:20:25.205Z,89.80
2019-05-21T03:22:54.756Z,90.38
2019-05-21T03:25:25.355Z,90.57
2019-05-21T03:27:54.421Z,92.53
2019-05-21T03:30:23.494Z,91.08
2019-05-21T03:32:52.561Z,91.26
2019-05-21T03:35:21.684Z,90.84
2019-05-21T03:37:51.152Z,91.61
2019-05-21T03:40:21.927Z,90.77
2019-05-21T03:42:52.313Z,90.55
2019-05-21T03:45:23.879Z,90.32
2019-05-21T03:47:53.100Z,90.12
2019-05-21T03:50:22.373Z,90.41
2019-05-21T03:52:53.324Z,90.06
2019-05-21T03:55:23.523Z,90.04
2019-05-21T03:57:57.961Z,90.72
2019-05-21T04:00:33.293Z,91.34
2019-05-21T04:03:02.369Z,90.51
2019-05-21T04:05:34.800Z,89.25
2019-05-21T04:08:03.883Z,89.97
2019-05-21T04:10:36.011Z,88.68
2019-05-21T04:13:09.107Z,88.82
2019-05-21T04:15:47.478Z,89.17
2019-05-21T04:18:26.918Z,89.92
2019-05-21T04:21:01.101Z,89.97
2019-05-21T04:23:34.719Z,89.62
2019-05-21T04:26:04.134Z,89.95
2019-05-21T04:28:34.425Z,89.33
2019-05-21T04:31:05.213Z,89.29
2019-05-21T04:33:34.260Z,89.35
2019-05-21T04:36:03.325Z,90.21
2019-05-21T04:38:32.376Z,90.42
2019-05-21T04:41:02.652Z,89.47
2019-05-21T04:43:31.702Z,89.55
2019-05-21T04:46:03.273Z,89.57
2019-05-21T04:48:32.390Z,89.53
2019-05-21T04:51:03.234Z,89.33
2019-05-21T04:53:32.649Z,90.05
2019-05-21T04:56:03.164Z,90.38
2019-05-21T04:58:33.132Z,90.54
2019-05-21T05:01:10.339Z,90.09
2019-05-21T05:03:44.738Z,89.90
2019-05-21T05:06:13.791Z,89.68
2019-05-21T05:08:43.891Z,90.63
2019-05-21T05:11:12.986Z,90.80
2019-05-21T05:13:42.034Z,90.70
2019-05-21T05:16:11.098Z,90.18
2019-05-21T05:18:40.152Z,90.21
2019-05-21T05:21:09.555Z,90.76
2019-05-21T05:23:39.198Z,91.01
2019-05-21T05:26:08.366Z,90.96
2019-05-21T05:28:37.814Z,91.43
2019-05-21T05:31:06.885Z,91.21
2019-05-21T05:33:35.936Z,91.19
2019-05-21T05:36:08.808Z,90.55
2019-05-21T05:38:37.895Z,91.07
2019-05-21T05:41:07.043Z,90.95
2019-05-21T05:43:38.844Z,90.98
2019-05-21T05:46:09.411Z,90.89
2019-05-21T05:48:46.248Z,92.07
2019-05-21T05:51:19.435Z,92.01
2019-05-21T05:53:58.175Z,92.14
2019-05-21T05:56:28.408Z,90.84
2019-05-21T05:59:04.076Z,91.07
2019-05-21T06:01:36.246Z,91.16
2019-05-21T06:04:05.402Z,91.26
2019-05-21T06:06:35.541Z,91.22
2019-05-21T06:09:05.816Z,90.79
2019-05-21T06:11:36.951Z,91.49
2019-05-21T06:14:11.498Z,90.34
2019-05-21T06:16:40.599Z,90.75
2019-05-21T06:19:09.927Z,90.69
2019-05-21T06:21:42.097Z,90.76
2019-05-21T06:24:13.464Z,91.12
2019-05-21T06:26:43.328Z,91.40
2019-05-21T06:29:14.966Z,92.35
2019-05-21T06:31:48.953Z,91.65
2019-05-21T06:34:18.021Z,92.02
2019-05-21T06:36:51.712Z,91.90
2019-05-21T06:39:23.213Z,91.31
2019-05-21T06:41:52.286Z,91.49
2019-05-21T06:44:21.342Z,92.65
2019-05-21T06:46:50.395Z,91.76
2019-05-21T06:49:19.728Z,91.90
2019-05-21T06:51:50.388Z,92.40
2019-05-21T06:54:19.462Z,92.82
2019-05-21T06:56:50.565Z,92.87
2019-05-21T06:59:21.012Z,91.21
2019-05-21T07:01:51.895Z,93.05
2019-05-21T07:04:21.386Z,92.45
2019-05-21T07:06:53.657Z,92.79
2019-05-21T07:09:22.898Z,93.26
2019-05-21T07:11:51.993Z,93.43
2019-05-21T07:14:21.045Z,92.77
2019-05-21T07:16:50.470Z,93.44
2019-05-21T07:19:42.139Z,93.82
2019-05-21T07:22:13.043Z,93.87
2019-05-21T07:24:42.006Z,94.20
2019-05-21T07:27:20.861Z,93.47
2019-05-21T07:29:53.133Z,93.72
2019-05-21T07:32:26.197Z,94.27
2019-05-21T07:35:00.492Z,94.15
2019-05-21T07:37:29.868Z,94.47
2019-05-21T07:40:01.335Z,93.99
2019-05-21T07:42:33.025Z,94.36
2019-05-21T07:45:06.143Z,94.28
2019-05-21T07:47:47.261Z,94.58
2019-05-21T07:50:26.892Z,94.06
2019-05-21T07:52:59.656Z,94.00
2019-05-21T07:55:30.757Z,93.23
2019-05-21T07:58:02.702Z,93.73
2019-05-21T08:00:34.981Z,94.00
2019-05-21T08:03:04.308Z,94.52
2019-05-21T08:05:34.840Z,94.75
2019-05-21T08:08:06.392Z,94.23
2019-05-21T08:10:35.435Z,93.68
2019-05-21T08:13:05.862Z,94.11
2019-05-21T08:15:35.285Z,93.99
2019-05-21T08:18:10.244Z,93.85
2019-05-21T08:20:42.286Z,93.32
2019-05-21T08:23:11.676Z,93.54
2019-05-21T08:25:41.035Z,93.21
2019-05-21T08:28:14.552Z,93.76
2019-05-21T08:30:44.014Z,94.19
2019-05-21T08:33:13.241Z,94.17
2019-05-21T08:35:43.079Z,94.45
2019-05-21T08:38:12.547Z,93.84
2019-05-21T08:40:42.095Z,93.63
2019-05-21T08:43:12.918Z,93.58
2019-05-21T08:45:44.158Z,93.23
2019-05-21T08:48:28.376Z,92.49
2019-05-21T08:50:57.460Z,92.10
2019-05-21T08:53:26.588Z,92.78
2019-05-21T08:55:56.034Z,93.15
2019-05-21T08:58:26.725Z,93.30
2019-05-21T09:00:56.060Z,93.71
2019-05-21T09:03:26.442Z,93.11
2019-05-21T09:05:56.079Z,92.87
2019-05-21T09:08:25.580Z,93.15
2019-05-21T09:10:57.851Z,93.74
2019-05-21T09:13:28.362Z,93.26
2019-05-21T09:15:57.483Z,93.23
2019-05-21T09:18:29.284Z,93.40
2019-05-21T09:20:59.900Z,93.32
2019-05-21T09:23:38.168Z,93.49
2019-05-21T09:26:07.573Z,93.55
2019-05-21T09:28:36.667Z,92.93
2019-05-21T09:31:06.590Z,93.40
2019-05-21T09:33:36.912Z,95.91
2019-05-21T09:36:07.498Z,92.91
2019-05-21T09:38:36.597Z,92.86
2019-05-21T09:41:05.745Z,92.55
2019-05-21T09:43:34.843Z,92.46
2019-05-21T09:46:04.944Z,91.85
2019-05-21T09:48:35.862Z,92.38
2019-05-21T09:51:05.185Z,91.96
2019-05-21T09:53:34.253Z,91.60
2019-05-21T09:56:22.276Z,91.68
2019-05-21T09:58:53.221Z,91.12
2019-05-21T10:01:30.036Z,91.27
2019-05-21T10:04:02.268Z,91.84
2019-05-21T10:06:36.358Z,92.00
2019-05-21T10:09:09.705Z,91.51
2019-05-21T10:11:41.292Z,90.50
2019-05-21T10:14:13.229Z,90.22
2019-05-21T10:16:45.331Z,89.72
2019-05-21T10:19:14.818Z,89.67
2019-05-21T10:21:44.974Z,90.95
2019-05-21T10:24:18.097Z,92.04
2019-05-21T10:26:47.215Z,90.59
2019-05-21T10:29:17.072Z,90.74
2019-05-21T10:31:48.516Z,91.31
2019-05-21T10:34:16.923Z,91.53
2019-05-21T10:36:46.023Z,90.88
2019-05-21T10:39:15.117Z,91.18
2019-05-21T10:41:46.167Z,90.62
2019-05-21T10:44:22.776Z,90.25
2019-05-21T10:46:56.991Z,91.73
2019-05-21T10:49:26.375Z,91.28
2019-05-21T10:51:57.438Z,90.52
2019-05-21T10:54:26.506Z,89.64
2019-05-21T10:56:55.605Z,90.08
2019-05-21T10:59:24.682Z,89.64
2019-05-21T11:02:10.893Z,89.33
2019-05-21T11:04:59.473Z,91.56
2019-05-21T11:07:28.846Z,90.02
2019-05-21T11:09:57.913Z,89.69
2019-05-21T11:12:26.983Z,89.72
2019-05-21T11:14:56.095Z,89.28
2019-05-21T11:17:26.226Z,88.09
2019-05-21T11:19:57.252Z,87.69
2019-05-21T11:22:26.664Z,87.74
2019-05-21T11:24:55.716Z,89.48
2019-05-21T11:27:30.413Z,89.04
2019-05-21T11:30:01.271Z,89.00
2019-05-21T11:32:30.963Z,89.22
2019-05-21T11:35:02.607Z,88.06
2019-05-21T11:37:31.972Z,89.12
2019-05-21T11:40:08.663Z,89.64
2019-05-21T11:42:41.769Z,88.87
2019-05-21T11:45:12.599Z,89.33
2019-05-21T11:47:46.200Z,88.33
2019-05-21T11:50:22.569Z,88.89
2019-05-21T11:52:54.258Z,88.11
2019-05-21T11:58:20.063Z,89.84
2019-05-21T12:00:52.418Z,89.24
2019-05-21T12:03:21.542Z,88.00
2019-05-21T12:05:53.649Z,88.94
2019-05-21T12:08:24.270Z,88.43
2019-05-21T12:10:55.207Z,89.00
2019-05-21T12:13:24.582Z,89.26
2019-05-21T12:15:54.434Z,88.89
2019-05-21T12:18:23.655Z,89.29
2019-05-21T12:20:52.726Z,89.05
2019-05-21T12:23:23.210Z,89.96
2019-05-21T12:25:54.477Z,88.72
2019-05-21T12:28:25.133Z,88.70
2019-05-21T12:30:56.914Z,89.43
2019-05-21T12:33:26.011Z,89.91
2019-05-21T12:35:55.078Z,89.46
2019-05-21T12:38:25.526Z,89.35
2019-05-21T12:40:59.870Z,89.99
2019-05-21T12:43:28.958Z,88.61
2019-05-21T12:46:03.361Z,89.16
2019-05-21T12:48:32.403Z,88.41
2019-05-21T12:51:06.722Z,90.44
2019-05-21T12:53:37.109Z,89.69
2019-05-21T12:56:08.890Z,88.45
2019-05-21T12:58:37.942Z,88.51
2019-05-21T13:01:08.249Z,89.44
2019-05-21T13:03:37.453Z,89.21
2019-05-21T13:06:09.513Z,89.18
2019-05-21T13:08:44.513Z,88.46
2019-05-21T13:11:13.660Z,89.33
2019-05-21T13:13:45.955Z,87.90
2019-05-21T13:16:15.061Z,89.13
2019-05-21T13:18:44.140Z,89.39
2019-05-21T13:21:13.190Z,89.42
2019-05-21T13:23:48.580Z,88.50
2019-05-21T13:26:19.232Z,89.80
2019-05-21T13:28:48.378Z,89.81
2019-05-21T13:31:17.915Z,89.42
2019-05-21T13:33:51.721Z,89.34
2019-05-21T13:36:20.827Z,88.84
2019-05-21T13:38:51.262Z,88.77
2019-05-21T13:41:25.672Z,88.38
2019-05-21T13:43:54.755Z,88.47
2019-05-21T13:46:24.982Z,88.42
2019-05-21T13:48:54.061Z,89.91
2019-05-21T13:51:25.952Z,89.76
2019-05-21T13:53:55.025Z,90.17
2019-05-21T13:56:24.099Z,90.96
2019-05-21T13:58:53.184Z,91.39
2019-05-21T14:01:39.252Z,91.48
2019-05-21T14:03:58.402Z,91.09
2019-05-21T14:06:28.730Z,91.22
2019-05-21T14:09:02.234Z,90.74
2019-05-21T14:11:40.467Z,90.14
2019-05-21T14:14:09.810Z,90.43
2019-05-21T14:16:43.444Z,89.26
2019-05-21T14:19:17.679Z,90.66
2019-05-21T14:21:46.707Z,89.94
2019-05-21T14:24:15.928Z,89.18
2019-05-21T14:26:45.185Z,89.38
2019-05-21T14:29:18.763Z,88.64
2019-05-21T14:31:50.678Z,89.37
2019-05-21T14:34:23.844Z,88.92
2019-05-21T14:36:55.869Z,90.04
2019-05-21T14:39:25.048Z,91.23
2019-05-21T14:41:54.170Z,90.37
2019-05-21T14:44:24.410Z,90.28
2019-05-21T14:46:53.471Z,89.94
2019-05-21T14:49:23.869Z,89.52
2019-05-21T14:51:53.456Z,88.72
2019-05-21T14:54:26.838Z,89.52
2019-05-21T14:57:04.618Z,88.79
2019-05-21T14:59:33.708Z,89.86
2019-05-21T15:02:02.782Z,89.36
2019-05-21T15:04:32.453Z,89.69
2019-05-21T15:07:07.883Z,89.81
2019-05-21T15:09:37.048Z,90.65
2019-05-21T15:12:08.411Z,92.62
2019-05-21T15:14:40.024Z,92.24
2019-05-21T15:17:09.489Z,91.45
2019-05-21T15:19:45.647Z,91.66
2019-05-21T15:22:16.632Z,90.36
2019-05-21T15:24:45.670Z,89.85
2019-05-21T15:27:16.168Z,90.39
2019-05-21T15:29:45.636Z,89.97
2019-05-21T15:32:14.732Z,90.72
2019-05-21T15:34:43.773Z,88.91
2019-05-21T15:37:12.881Z,89.32
2019-05-21T15:39:44.475Z,90.07
2019-05-21T15:42:13.635Z,89.75
2019-05-21T15:44:42.714Z,88.82
2019-05-21T15:47:11.868Z,89.72
2019-05-21T15:49:40.933Z,90.56
2019-05-21T15:52:10.376Z,89.79
2019-05-21T15:54:43.591Z,88.13
2019-05-21T15:57:18.664Z,89.91
2019-05-21T15:59:50.154Z,89.75
2019-05-21T16:02:19.252Z,90.79
2019-05-21T16:04:48.283Z,91.44
2019-05-21T16:07:17.337Z,89.67
2019-05-21T16:09:53.602Z,89.94
2019-05-21T16:12:23.833Z,89.92
2019-05-21T16:14:52.910Z,89.09
2019-05-21T16:17:22.015Z,88.96
2019-05-21T16:19:54.705Z,90.29
2019-05-21T16:22:23.755Z,89.56
2019-05-21T16:24:52.789Z,89.82
2019-05-21T16:27:23.317Z,89.43
2019-05-21T16:29:52.846Z,89.98
2019-05-21T16:32:21.916Z,90.92
2019-05-21T16:34:51.048Z,89.59
2019-05-21T16:37:20.162Z,90.27
2019-05-21T16:39:50.757Z,90.25
2019-05-21T16:42:25.971Z,90.52
2019-05-21T16:44:58.053Z,91.30
2019-05-21T16:47:44.028Z,91.28
2019-05-21T16:50:01.112Z,89.45
2019-05-21T16:52:32.975Z,90.54
2019-05-21T16:55:06.899Z,89.76
2019-05-21T16:57:37.801Z,89.10
2019-05-21T17:00:07.958Z,88.97
2019-05-21T17:02:42.695Z,88.25
2019-05-21T17:05:11.957Z,87.03
2019-05-21T17:07:42.295Z,88.04
2019-05-21T17:10:14.852Z,88.51
2019-05-21T17:12:45.844Z,87.77
2019-05-21T17:15:16.286Z,87.90
2019-05-21T17:17:46.398Z,89.35
2019-05-21T17:20:16.013Z,88.51
2019-05-21T17:22:47.669Z,88.93
2019-05-21T17:25:19.573Z,89.66
2019-05-21T17:27:48.605Z,89.63
2019-05-21T17:30:17.717Z,87.18
2019-05-21T17:32:57.319Z,88.00
2019-05-21T17:35:26.446Z,89.23
2019-05-21T17:37:55.583Z,89.81
2019-05-21T17:40:24.818Z,88.89
2019-05-21T17:42:55.023Z,88.19
2019-05-21T17:45:24.423Z,89.96
2019-05-21T17:47:53.558Z,89.53
2019-05-21T17:50:22.784Z,89.09
2019-05-21T17:52:52.845Z,88.15
2019-05-21T17:55:22.007Z,89.32
2019-05-21T17:57:54.033Z,88.83
2019-05-21T18:00:54.301Z,88.92
2019-05-21T18:03:24.706Z,89.00
2019-05-21T18:05:55.665Z,89.03
2019-05-21T18:08:26.606Z,89.07
2019-05-21T18:10:57.772Z,90.06
2019-05-21T18:13:30.759Z,90.31
2019-05-21T18:16:02.700Z,89.24
2019-05-21T18:18:31.917Z,89.90
2019-05-21T18:21:07.584Z,90.67
2019-05-21T18:23:37.218Z,90.87
2019-05-21T18:26:09.598Z,91.05
2019-05-21T18:28:40.166Z,89.83
2019-05-21T18:31:11.940Z,90.10
2019-05-21T18:33:41.134Z,89.67
2019-05-21T18:36:15.568Z,88.66
2019-05-21T18:38:47.934Z,89.12
2019-05-21T18:41:19.996Z,87.73
2019-05-21T18:43:50.972Z,90.22
2019-05-21T18:46:23.889Z,90.99
2019-05-21T18:48:55.301Z,90.02
2019-05-21T18:51:24.731Z,90.08
2019-05-21T18:53:57.231Z,89.15
2019-05-21T18:56:26.388Z,88.52
2019-05-21T18:58:57.800Z,90.54
2019-05-21T19:01:27.153Z,89.03
2019-05-21T19:03:58.577Z,89.96
2019-05-21T19:06:27.736Z,90.73
2019-05-21T19:08:56.955Z,90.05
2019-05-21T19:11:26.046Z,89.96
2019-05-21T19:13:56.631Z,90.18
2019-05-21T19:16:29.835Z,88.68
2019-05-21T19:18:56.741Z,88.46
2019-05-21T19:21:30.611Z,88.45
2019-05-21T19:24:00.639Z,89.37
2019-05-21T19:26:36.058Z,88.67
2019-05-21T19:29:07.883Z,87.33
2019-05-21T19:31:36.546Z,88.28
2019-05-21T19:34:05.923Z,88.58
2019-05-21T19:36:36.997Z,89.25
2019-05-21T19:39:13.496Z,89.58
2019-05-21T19:41:44.078Z,87.93
2019-05-21T19:44:17.713Z,88.71
2019-05-21T19:46:48.166Z,90.00
2019-05-21T19:49:21.507Z,89.83
2019-05-21T19:51:55.065Z,89.04
2019-05-21T19:54:29.553Z,89.98
2019-05-21T19:56:58.673Z,89.61
2019-05-21T19:59:28.036Z,88.57
2019-05-21T20:01:58.134Z,87.83
2019-05-21T20:04:27.364Z,88.23
2019-05-21T20:06:56.427Z,87.11
2019-05-21T20:09:28.408Z,88.75
2019-05-21T20:11:57.774Z,90.08
2019-05-21T20:14:27.604Z,89.18
2019-05-21T20:16:56.688Z,87.48
2019-05-21T20:19:29.735Z,87.83
2019-05-21T20:21:59.266Z,88.61
2019-05-21T20:24:29.091Z,88.27
2019-05-21T20:27:00.660Z,89.15
2019-05-21T20:29:30.137Z,89.39
2019-05-21T20:32:01.343Z,89.30
2019-05-21T20:34:33.521Z,87.92
2019-05-21T20:37:03.232Z,88.29
2019-05-21T20:39:33.546Z,88.44
2019-05-21T20:42:09.093Z,88.39
2019-05-21T20:44:38.129Z,88.53
2019-05-21T20:47:09.153Z,88.70
2019-05-21T20:49:38.649Z,89.91
2019-05-21T20:52:18.056Z,89.93
2019-05-21T20:54:43.453Z,89.39
2019-05-21T20:57:14.657Z,90.06
2019-05-21T20:59:43.718Z,89.88
2019-05-21T21:02:14.745Z,89.55
2019-05-21T21:04:45.102Z,89.49
2019-05-21T21:07:18.091Z,89.44
2019-05-21T21:09:51.497Z,89.21
2019-05-21T21:12:20.904Z,87.82
2019-05-21T21:14:53.770Z,87.78
2019-05-21T21:17:23.220Z,87.27
2019-05-21T21:19:52.483Z,88.66
2019-05-21T21:22:21.601Z,87.67
2019-05-21T21:24:50.799Z,85.27
2019-05-21T21:27:19.897Z,85.85
2019-05-21T21:29:48.997Z,87.34
2019-05-21T21:32:21.034Z,86.68
2019-05-21T21:34:50.280Z,86.60
2019-05-21T21:37:19.646Z,86.94
2019-05-21T21:39:50.384Z,88.25
2019-05-21T21:42:19.532Z,86.91
2019-05-21T21:44:53.203Z,85.83
2019-05-21T21:47:22.707Z,84.90
2019-05-21T21:49:52.096Z,87.02
2019-05-21T21:52:23.153Z,88.04
2019-05-21T21:54:55.803Z,85.76
2019-05-21T21:57:25.292Z,86.21
2019-05-21T22:00:01.104Z,86.46
2019-05-21T22:02:32.062Z,86.36
2019-05-21T22:05:03.792Z,86.42
2019-05-21T22:07:33.251Z,86.11
2019-05-21T22:10:02.590Z,85.30
2019-05-21T22:12:34.852Z,84.92
2019-05-21T22:15:07.094Z,85.41
2019-05-21T22:17:42.916Z,85.35
2019-05-21T22:20:15.215Z,83.67
2019-05-21T22:22:54.935Z,83.73
2019-05-21T22:25:27.520Z,84.08
2019-05-21T22:27:56.681Z,84.03
2019-05-21T22:30:28.936Z,85.06
2019-05-21T22:33:07.712Z,86.17
2019-05-21T22:35:36.943Z,85.46
2019-05-21T22:38:06.774Z,85.65
2019-05-21T22:40:35.924Z,86.61
2019-05-21T22:43:05.550Z,86.24
2019-05-21T22:45:34.651Z,84.96
2019-05-21T22:48:03.893Z,84.76
2019-05-21T22:50:38.393Z,85.83
2019-05-21T22:53:08.872Z,85.97
2019-05-21T22:55:40.425Z,84.97
2019-05-21T22:58:09.479Z,85.44
2019-05-21T23:00:43.214Z,86.77
2019-05-21T23:03:18.459Z,87.13
2019-05-21T23:05:50.323Z,86.87
2019-05-21T23:08:25.178Z,86.89
2019-05-21T23:10:54.706Z,87.42
2019-05-21T23:13:25.338Z,87.15
2019-05-21T23:16:01.423Z,87.05
2019-05-21T23:18:33.798Z,86.81
2019-05-21T23:21:03.966Z,87.62
2019-05-21T23:23:37.999Z,88.45
2019-05-21T23:26:10.629Z,86.82
2019-05-21T23:28:40.892Z,86.65
2019-05-21T23:31:13.202Z,87.09
2019-05-21T23:33:44.813Z,85.62
2019-05-21T23:36:14.249Z,85.68
2019-05-21T23:38:43.590Z,86.74
2019-05-21T23:41:12.588Z,84.71
2019-05-21T23:43:42.269Z,86.62
2019-05-21T23:46:12.841Z,86.89
2019-05-21T23:48:43.513Z,85.08
2019-05-21T23:51:12.716Z,85.69
2019-05-21T23:53:41.826Z,84.48
2019-05-21T23:56:10.892Z,85.08
2019-05-21T23:58:39.986Z,85.68
